Weather at Dörtyol Airfield

Public forecast

Using degrees Celsius for public forecast. Weather courtesy of forecast.io.

Closest aviation weather report (METAR) to Dörtyol Airfield

Closest report is Hatay Airport, 28.3 nm (52.4 km) S.

2024/04/18 00:50 (retrieved 53 minutes ago)

LTDA 180050Z 32006KT CAVOK 16/12 Q1008 NOSIG

Closest aviation forecast (TAF) to Dörtyol Airfield

Forecast is more than 12 hours old.

Closest forecast is Aleppo International Airport, 62.3 nm (115.5 km) SE.

2024/04/17 12:42 (retrieved 13 hours ago)

TAF OSAP 172130Z 1712/1812 32008KT CAVOK BECMG 18008/1810 03008KT 9999 FEW030